Latest Weather Observations for Julia Creek

IDQ60801

Issued at 3:32 pm EST Tuesday 26 May 2015 (issued every 30 minutes, with the page automatically refreshed every 10 minutes)

About weather observations | Map of weather stations | Latest weather observations for QLD | Other Formats
Station Details ID: 029058 Name: JULIA CREEK AIRPORT Lat: -20.67 Lon: 141.72 Height: 122.5 m
Data from the previous 72 hours. | See also: Recent months at Julia Creek
Date/Time
EST
Temp
°C
App
Temp
°C
Dew
Point
Rel
Hum
%
Delta-T
°C
Wind Press
QNH
hPa
Press
MSL
hPa
Rain
since 9 am
mm
Dir
 
Spd
km/h
Gust
km/h
Spd
kts
Gust
kts
26/03:30pm 30.9 27.1 9.7 27 12.0 SE 20 32 11 17 1017.1 1016.6 0.0
26/03:00pm 30.2 26.9 9.7 28 11.6 SE 17 24 9 13 1017.4 1016.9 0.0
26/02:30pm 30.6 27.4 10.0 28 11.7 SE 17 30 9 16 1017.7 1017.3 0.0
26/02:00pm 30.2 27.1 10.2 29 11.4 SE 17 30 9 16 1018.2 1017.8 0.0
26/01:30pm 30.7 27.7 10.6 29 11.5 ESE 17 26 9 14 1018.8 1018.4 0.0
26/01:00pm 29.8 27.5 10.4 30 11.1 E 13 28 7 15 1019.4 1019.0 0.0
26/12:30pm 29.0 27.1 10.6 32 10.5 E 11 19 6 10 1020.1 1019.7 0.0
26/12:00pm 28.4 26.3 11.0 34 9.9 ENE 13 22 7 12 1020.7 1020.3 0.0
26/11:30am 27.5 25.3 10.7 35 9.5 E 13 20 7 11 1021.3 1020.9 0.0
26/11:00am 26.9 24.5 11.4 38 8.9 ESE 15 22 8 12 1021.9 1021.5 0.0
26/10:30am 25.7 23.4 11.8 42 8.0 E 15 20 8 11 1022.5 1022.0 0.0
26/10:00am 25.1 22.1 12.0 44 7.5 E 19 22 10 12 1022.6 1022.1 0.0
26/09:30am 23.8 20.8 12.1 48 6.7 E 19 24 10 13 1022.7 1022.2 0.0
26/09:00am 22.1 18.9 11.8 52 5.8 ESE 20 24 11 13 1022.7 1022.2 0.0
26/08:30am 20.1 17.0 10.2 53 5.3 ESE 17 22 9 12 1022.5 1022.0 0.0
26/08:00am 18.5 16.0 9.6 56 4.7 ESE 13 17 7 9 1022.1 1021.7 0.0
26/07:30am 16.8 14.4 8.8 59 4.1 SE 11 13 6 7 1021.8 1021.4 0.0
26/07:00am 16.0 13.5 8.0 59 4.0 SE 11 13 6 7 1021.6 1021.2 0.0
26/06:30am 16.4 13.9 8.4 59 4.1 ESE 11 13 6 7 1021.1 1020.7 0.0
26/06:00am 16.9 14.5 8.6 58 4.3 ESE 11 13 6 7 1020.7 1020.3 0.0
26/05:30am 17.4 15.0 8.8 57 4.5 E 11 13 6 7 1020.5 1020.1 0.0
26/05:00am 18.1 15.4 8.9 55 4.8 E 13 15 7 8 1020.3 1019.9 0.0
26/04:30am 18.6 15.9 9.1 54 5.0 ESE 13 15 7 8 1020.3 1019.9 0.0
26/04:00am 19.3 16.7 9.5 53 5.2 ESE 13 15 7 8 1020.3 1019.9 0.0
26/03:30am 19.9 17.4 9.8 52 5.4 ESE 13 15 7 8 1020.4 1020.0 0.0
26/03:00am 20.1 17.6 9.7 51 5.6 ESE 13 15 7 8 1020.5 1020.1 0.0
26/02:30am 20.5 17.6 9.7 50 5.8 ESE 15 17 8 9 1020.7 1020.3 0.0
26/02:00am 20.7 17.9 9.9 50 5.8 ESE 15 17 8 9 1020.9 1020.5 0.0
26/01:30am 21.1 18.2 9.7 48 6.2 ESE 15 20 8 11 1020.9 1020.5 0.0
26/01:00am 21.7 18.1 9.9 47 6.4 ESE 19 22 10 12 1020.8 1020.4 0.0
26/12:30am 22.1 18.6 10.3 47 6.5 ESE 19 24 10 13 1020.7 1020.3 0.0
26/12:00am 22.5 18.8 10.3 46 6.7 SE 20 24 11 13 1020.6 1020.2 0.0
 
Date/Time
EST
Temp
°C
App
Temp
°C
Dew
Point
Rel
Hum
%
Delta-T
°C
Wind Press
QNH
hPa
Press
MSL
hPa
Rain
since 9 am
mm
Dir
 
Spd
km/h
Gust
km/h
Spd
kts
Gust
kts
25/11:30pm 22.6 19.1 10.1 45 6.9 SE 19 22 10 12 1020.7 1020.3 0.0
25/11:00pm 23.0 19.5 10.1 44 7.1 SE 19 22 10 12 1020.7 1020.3 0.0
25/10:30pm 23.1 19.5 9.8 43 7.3 SE 19 22 10 12 1020.6 1020.2 0.0
25/10:00pm 23.1 20.2 9.5 42 7.4 SE 15 19 8 10 1020.5 1020.1 0.0
25/09:30pm 23.9 20.8 10.2 42 7.6 SE 17 20 9 11 1020.5 1020.1 0.0
25/09:00pm 23.2 21.0 9.2 41 7.6 SSE 11 13 6 7 1020.2 1019.8 0.0
25/08:30pm 24.1 21.1 9.3 39 8.1 SSE 15 17 8 9 1019.9 1019.5 0.0
25/08:00pm 24.3 21.6 9.1 38 8.2 SSE 13 15 7 8 1019.6 1019.2 0.0
25/07:30pm 24.2 21.7 8.2 36 8.5 SSE 11 13 6 7 1019.4 1019.0 0.0
25/07:00pm 25.6 23.3 9.0 35 9.1 SSE 11 13 6 7 1019.0 1018.6 0.0
25/06:30pm 27.3 25.2 9.6 33 9.8 SSE 11 13 6 7 1018.6 1018.2 0.0
25/06:00pm 28.9 26.3 10.6 32 10.4 SSE 15 20 8 11 1018.3 1017.9 0.0
25/05:30pm 29.9 27.4 10.9 31 10.9 SE 15 22 8 12 1017.9 1017.5 0.0
25/05:00pm 30.9 29.6 11.3 30 11.4 SE 9 19 5 10 1017.9 1017.5 0.0
25/04:30pm 30.5 28.6 10.5 29 11.5 SE 11 22 6 12 1017.6 1017.2 0.0
25/04:00pm 31.3 29.6 11.1 29 11.7 SSE 11 28 6 15 1017.6 1017.2 0.0
25/03:30pm 30.4 29.1 11.4 31 11.1 SE 9 15 5 8 1017.8 1017.4 0.0
25/03:00pm 31.1 29.9 11.5 30 11.4 ESE 9 15 5 8 1018.0 1017.6 0.0
25/02:30pm 31.0 29.7 11.4 30 11.4 E 9 15 5 8 1018.1 1017.7 0.0
25/02:00pm 30.4 29.0 12.3 33 10.7 E 11 19 6 10 1018.5 1018.1 0.0
25/01:30pm 29.9 28.5 12.3 33 10.4 SE 11 19 6 10 1018.9 1018.5 0.0
25/01:00pm 29.9 29.4 12.8 35 10.1 ESE 7 15 4 8 1019.3 1018.9 0.0
25/12:30pm 29.2 29.0 13.0 37 9.6 E 6 13 3 7 1020.1 1019.7 0.0
25/12:00pm 28.9 28.1 13.9 39 9.0 ENE 11 22 6 12 1020.6 1020.2 0.0
25/11:30am 28.3 26.8 14.2 42 8.5 NE 15 24 8 13 1021.0 1020.6 0.0
25/11:00am 27.1 25.3 14.5 46 7.6 ENE 17 24 9 13 1021.4 1021.0 0.0
25/10:30am 26.1 23.8 14.6 49 6.9 ENE 20 30 11 16 1021.7 1021.3 0.0
25/10:00am 25.3 22.2 14.4 50 6.5 ENE 24 32 13 17 1022.1 1021.7 0.0
25/09:30am 24.6 22.2 14.4 53 6.1 ENE 20 32 11 17 1022.3 1021.9 0.0
25/09:00am 22.8 20.4 14.4 59 5.0 E 20 28 11 15 1022.2 1021.8 0.0
25/08:30am 21.0 18.6 13.9 64 4.1 ESE 19 22 10 12 1022.0 1021.6 0.0
25/08:00am 19.3 17.5 13.3 68 3.4 ESE 15 19 8 10 1021.8 1021.4 0.0
25/07:30am 17.5 16.2 12.4 72 2.8 ESE 11 13 6 7 1021.4 1021.0 0.0
25/07:00am 16.9 15.1 12.0 73 2.7 ESE 13 15 7 8 1021.0 1020.6 0.0
25/06:30am 17.1 15.3 12.0 72 2.8 E 13 15 7 8 1020.6 1020.2 0.0
25/06:00am 17.5 15.7 12.0 70 3.0 E 13 17 7 9 1020.3 1019.9 0.0
25/05:30am 17.9 16.1 12.1 69 3.2 E 13 17 7 9 1020.0 1019.6 0.0
25/05:00am 17.9 16.0 11.9 68 3.3 E 13 15 7 8 1019.9 1019.5 0.0
25/04:30am 18.2 15.9 11.7 66 3.6 E 15 19 8 10 1019.7 1019.3 0.0
25/04:00am 18.2 15.8 11.5 65 3.7 E 15 17 8 9 1019.7 1019.3 0.0
25/03:30am 18.1 15.6 11.2 64 3.8 ESE 15 17 8 9 1019.5 1019.1 0.0
25/03:00am 18.2 16.1 11.0 63 3.9 ESE 13 15 7 8 1019.6 1019.2 0.0
25/02:30am 18.9 16.2 11.7 63 4.0 ESE 17 19 9 10 1019.3 1018.9 0.0
25/02:00am 19.1 16.8 11.7 62 4.1 ESE 15 19 8 10 1019.6 1019.2 0.0
25/01:30am 19.2 16.8 11.3 60 4.3 ESE 15 19 8 10 1019.7 1019.3 0.0
25/01:00am 19.4 16.5 10.9 58 4.6 ESE 17 19 9 10 1019.6 1019.2 0.0
25/12:30am 19.4 16.6 10.1 55 5.0 ESE 15 17 8 9 1019.8 1019.4 0.0
25/12:00am 19.1 16.0 8.7 51 5.4 SE 15 19 8 10 1019.9 1019.5 0.0
 
Date/Time
EST
Temp
°C
App
Temp
°C
Dew
Point
Rel
Hum
%
Delta-T
°C
Wind Press
QNH
hPa
Press
MSL
hPa
Rain
since 9 am
mm
Dir
 
Spd
km/h
Gust
km/h
Spd
kts
Gust
kts
24/11:30pm 18.9 15.4 7.4 47 5.9 SE 15 17 8 9 1019.6 1019.2 0.0
24/11:00pm 18.2 14.4 3.7 38 6.8 SE 13 15 7 8 1019.6 1019.2 0.0
24/10:30pm 18.6 14.5 2.0 33 7.6 SE 13 15 7 8 1019.4 1019.0 0.0
24/10:00pm 20.2 15.5 3.0 32 8.1 ESE 17 20 9 11 1019.4 1019.0 0.0
24/09:30pm 20.0 15.2 2.8 32 8.1 SE 17 20 9 11 1019.3 1018.9 0.0
24/09:00pm 17.9 12.8 -1.9 26 8.3 SE 15 15 8 8 1019.3 1018.9 0.0
24/08:30pm 18.1 13.3 -2.2 25 8.5 SSE 13 15 7 8 1019.2 1018.8 0.0
24/08:00pm 19.1 14.0 -1.9 24 8.9 S 15 15 8 8 1018.9 1018.5 0.0
24/07:30pm 20.1 15.3 -2.9 21 9.7 SSE 13 15 7 8 1018.7 1018.3 0.0
24/07:00pm 21.4 17.5 -1.8 21 10.0 S 9 11 5 6 1018.4 1018.0 0.0
24/06:30pm 23.7 20.4 -1.3 19 11.2 SSE 6 7 3 4 1018.3 1017.9 0.0
24/06:00pm 26.0 22.8 0.6 19 12.0 SE 7 9 4 5 1017.9 1017.5 0.0
24/05:30pm 28.2 25.0 0.9 17 13.1 ESE 7 9 4 5 1017.8 1017.4 0.0
24/05:00pm 28.8 26.3 1.3 17 13.4 ESE 4 7 2 4 1017.7 1017.3 0.0
24/04:30pm 29.2 26.2 0.8 16 13.7 E 6 11 3 6 1017.3 1016.8 0.0
24/04:00pm 29.1 26.0 -0.1 15 13.9 SSE 6 17 3 9 1017.3 1016.8 0.0
24/03:30pm 28.6 25.4 -0.5 15 13.7 E 6 7 3 4 1017.4 1016.9 0.0
24/03:00pm 29.1 26.0 -0.1 15 13.9 ESE 6 13 3 7 1017.4 1016.9 0.0
24/02:30pm 28.8 25.7 1.3 17 13.4 SE 7 15 4 8 1017.5 1017.1 0.0
24/02:00pm 28.4 24.9 1.0 17 13.2 NE 9 17 5 9 1017.5 1017.1 0.0
24/01:30pm 27.6 25.0 1.2 18 12.7 E 4 13 2 7 1018.1 1017.7 0.0
24/01:00pm 26.9 23.6 2.7 21 11.9 E 9 17 5 9 1018.6 1018.2 0.0
24/12:30pm 26.8 23.6 3.3 22 11.7 ENE 9 17 5 9 1019.2 1018.8 0.0
24/12:00pm 25.6 22.1 3.6 24 10.9 E 11 20 6 11 1019.8 1019.4 0.0
24/11:30am 24.8 21.0 4.0 26 10.3 E 13 20 7 11 1020.3 1019.9 0.0
24/11:00am 24.2 19.8 4.6 28 9.8 E 17 28 9 15 1020.6 1020.2 0.0
24/10:30am 22.8 17.4 4.3 30 9.1 E 22 30 12 16 1021.0 1020.6 0.0
24/10:00am 20.9 15.8 4.0 33 8.2 E 20 28 11 15 1021.0 1020.6 0.0
24/09:30am 20.3 14.5 4.4 35 7.7 ESE 24 30 13 16 1021.1 1020.7 0.0
24/09:00am 17.4 11.8 3.7 40 6.4 ESE 22 28 12 15 1020.7 1020.3 0.0
24/08:30am 15.6 9.1 2.7 42 5.8 ESE 26 32 14 17 1020.1 1019.7 0.0
24/08:00am 14.3 8.9 2.2 44 5.3 SE 20 26 11 14 1019.9 1019.5 0.0
24/07:30am 12.5 6.9 1.5 47 4.7 SE 20 24 11 13 1019.6 1019.2 0.0
24/07:00am 11.7 6.0 0.8 47 4.6 SE 20 28 11 15 1019.5 1019.1 0.0
24/06:30am 11.1 5.5 0.2 47 4.5 SE 19 24 10 13 1019.2 1018.8 0.0
24/06:00am 10.5 5.2 -0.6 46 4.4 SE 17 20 9 11 1019.0 1018.6 0.0
24/05:30am 10.9 6.0 -0.5 45 4.6 SE 15 19 8 10 1018.8 1018.4 0.0
24/05:00am 10.9 5.6 -0.5 45 4.6 SE 17 20 9 11 1018.4 1018.0 0.0
24/04:30am 11.7 6.4 -0.4 43 4.9 SE 17 22 9 12 1018.7 1018.3 0.0
24/04:00am 11.8 6.5 -0.7 42 5.1 SE 17 20 9 11 1018.6 1018.2 0.0
24/03:30am 12.1 6.8 -0.7 41 5.2 SE 17 22 9 12 1018.9 1018.5 0.0
24/03:00am 12.1 6.4 -1.1 40 5.3 SE 19 22 10 12 1019.0 1018.6 0.0
24/02:30am 12.1 6.7 -1.4 39 5.4 SE 17 20 9 11 1019.2 1018.8 0.0
24/02:00am 12.4 7.0 -1.1 39 5.4 SE 17 20 9 11 1019.5 1019.1 0.0
24/01:30am 12.2 6.8 -1.7 38 5.5 SSE 17 22 9 12 1019.6 1019.2 0.0
24/01:00am 12.0 6.9 -2.2 37 5.6 SSE 15 17 8 9 1019.8 1019.4 0.0
24/12:30am 12.7 8.0 -1.6 37 5.7 SSE 13 15 7 8 1019.7 1019.3 0.0
24/12:00am 13.3 8.2 -1.8 35 6.0 SSE 15 17 8 9 1019.8 1019.4 0.0
 
Date/Time
EST
Temp
°C
App
Temp
°C
Dew
Point
Rel
Hum
%
Delta-T
°C
Wind Press
QNH
hPa
Press
MSL
hPa
Rain
since 9 am
mm
Dir
 
Spd
km/h
Gust
km/h
Spd
kts
Gust
kts
23/11:30pm 12.9 8.1 -2.6 34 6.1 SSE 13 17 7 9 1019.7 1019.3 0.0
23/11:00pm 13.8 8.7 -2.2 33 6.4 SSE 15 19 8 10 1019.9 1019.5 0.0
23/10:30pm 14.7 9.2 -2.2 31 6.8 SSE 17 19 9 10 1019.8 1019.4 0.0
23/10:00pm 15.7 10.2 -1.8 30 7.2 SSE 17 20 9 11 1019.9 1019.5 0.0
23/09:30pm 16.9 11.1 -1.2 29 7.6 SSE 19 22 10 12 1019.8 1019.4 0.0
23/09:00pm 17.1 11.3 -1.5 28 7.8 SSE 19 24 10 13 1019.8 1019.4 0.0
23/08:30pm 17.2 11.7 -2.4 26 8.1 SSE 17 20 9 11 1019.8 1019.4 0.0
23/08:00pm 17.6 12.4 -2.6 25 8.3 SSE 15 19 8 10 1019.6 1019.2 0.0
23/07:30pm 18.3 13.1 -2.6 24 8.7 SSE 15 17 8 9 1019.0 1018.6 0.0
23/07:00pm 19.5 14.0 -2.2 23 9.2 SSE 17 20 9 11 1018.7 1018.3 0.0
23/06:30pm 20.7 15.5 -2.4 21 9.8 SE 15 19 8 10 1018.4 1018.0 0.0
23/06:00pm 22.6 16.6 -2.9 18 10.9 SE 19 26 10 14 1018.3 1017.9 0.0
23/05:30pm 24.2 17.4 -1.6 18 11.5 SE 24 33 13 18 1018.1 1017.7 0.0
23/05:00pm 24.8 17.6 -1.9 17 11.9 SE 26 35 14 19 1017.8 1017.4 0.0
23/04:30pm 25.4 18.8 -0.6 18 11.9 SE 24 33 13 18 1017.6 1017.2 0.0
23/04:00pm 25.3 19.5 0.0 19 11.7 SE 20 30 11 16 1017.7 1017.3 0.0

Other Formats:

Comma delimited format used in spreadsheet applications
http://www.bom.gov.au/fwo/IDQ60801/IDQ60801.94337.axf

JavaScript Object Notation format (JSON) in row-major order
http://www.bom.gov.au/fwo/IDQ60801/IDQ60801.94337.json